sensor_id;sensor_type;location;lat;lon;timestamp;P1;durP1;ratioP1;P2;durP2;ratioP2
13368;SDS011;6753;52.520;13.450;2023-03-01T00:00:05;665.50;;;596.28;;
13368;SDS011;6753;52.520;13.450;2023-03-01T00:00:17;662.78;;;593.40;;
13368;SDS011;6753;52.520;13.450;2023-03-01T00:00:28;652.17;;;583.72;;
13368;SDS011;6753;52.520;13.450;2023-03-01T00:00:39;647.97;;;580.00;;
13368;SDS011;6753;52.520;13.450;2023-03-01T00:00:50;645.92;;;578.28;;
13368;SDS011;6753;52.520;13.450;2023-03-01T00:01:02;646.58;;;578.75;;
13368;SDS011;6753;52.520;13.450;2023-03-01T00:01:14;637.65;;;570.67;;
13368;SDS011;6753;52.520;13.450;2023-03-01T00:01:29;641.38;;;574.08;;
13368;SDS011;6753;52.520;13.450;2023-03-01T00:01:40;639.65;;;572.25;;
13368;SDS011;6753;52.520;13.450;2023-03-01T00:01:51;637.50;;;570.33;;
13368;SDS011;6753;52.520;13.450;2023-03-01T00:02:02;635.85;;;568.63;;
13368;SDS011;6753;52.520;13.450;2023-03-01T00:02:14;639.33;;;571.83;;
13368;SDS011;6753;52.520;13.450;2023-03-01T00:02:25;633.40;;;566.75;;
13368;SDS011;6753;52.520;13.450;2023-03-01T00:02:35;631.60;;;565.40;;
13368;SDS011;6753;52.520;13.450;2023-03-01T00:02:46;632.65;;;566.38;;
13368;SDS011;6753;52.520;13.450;2023-03-01T00:02:58;637.83;;;571.22;;
13368;SDS011;6753;52.520;13.450;2023-03-01T00:03:09;639.37;;;572.80;;
13368;SDS011;6753;52.520;13.450;2023-03-01T00:03:19;636.50;;;570.03;;
13368;SDS011;6753;52.520;13.450;2023-03-01T00:03:30;641.28;;;574.10;;
13368;SDS011;6753;52.520;13.450;2023-03-01T00:03:42;642.70;;;575.40;;
13368;SDS011;6753;52.520;13.450;2023-03-01T00:03:53;638.03;;;571.25;;
13368;SDS011;6753;52.520;13.450;2023-03-01T00:04:05;627.58;;;561.53;;
13368;SDS011;6753;52.520;13.450;2023-03-01T00:04:16;615.75;;;550.72;;
13368;SDS011;6753;52.520;13.450;2023-03-01T00:04:27;606.55;;;542.35;;
13368;SDS011;6753;52.520;13.450;2023-03-01T00:04:38;603.40;;;539.35;;
13368;SDS011;6753;52.520;13.450;2023-03-01T00:04:49;600.50;;;536.63;;
13368;SDS011;6753;52.520;13.450;2023-03-01T00:05:00;598.33;;;534.70;;
13368;SDS011;6753;52.520;13.450;2023-03-01T00:05:11;601.58;;;537.65;;
13368;SDS011;6753;52.520;13.450;2023-03-01T00:05:22;592.95;;;529.58;;
13368;SDS011;6753;52.520;13.450;2023-03-01T00:05:33;581.13;;;518.63;;
13368;SDS011;6753;52.520;13.450;2023-03-01T00:05:45;563.13;;;502.00;;
13368;SDS011;6753;52.520;13.450;2023-03-01T00:05:56;553.60;;;493.15;;
13368;SDS011;6753;52.520;13.450;2023-03-01T00:06:07;544.57;;;484.77;;
13368;SDS011;6753;52.520;13.450;2023-03-01T00:06:18;537.28;;;477.95;;
13368;SDS011;6753;52.520;13.450;2023-03-01T00:06:29;533.67;;;474.77;;
13368;SDS011;6753;52.520;13.450;2023-03-01T00:06:41;532.70;;;473.80;;
13368;SDS011;6753;52.520;13.450;2023-03-01T00:06:56;524.67;;;463.70;;
13368;SDS011;6753;52.520;13.450;2023-03-01T00:07:07;519.30;;;453.33;;
13368;SDS011;6753;52.520;13.450;2023-03-01T00:07:18;513.65;;;447.42;;
13368;SDS011;6753;52.520;13.450;2023-03-01T00:07:29;507.77;;;438.77;;
13368;SDS011;6753;52.520;13.450;2023-03-01T00:07:40;503.25;;;433.75;;
13368;SDS011;6753;52.520;13.450;2023-03-01T00:07:52;504.55;;;434.40;;
13368;SDS011;6753;52.520;13.450;2023-03-01T00:08:03;507.02;;;442.30;;
13368;SDS011;6753;52.520;13.450;2023-03-01T00:08:14;504.60;;;437.10;;
13368;SDS011;6753;52.520;13.450;2023-03-01T00:08:24;507.63;;;436.67;;
13368;SDS011;6753;52.520;13.450;2023-03-01T00:08:35;508.63;;;437.38;;
13368;SDS011;6753;52.520;13.450;2023-03-01T00:08:47;505.98;;;434.17;;
13368;SDS011;6753;52.520;13.450;2023-03-01T00:08:58;499.83;;;426.48;;
13368;SDS011;6753;52.520;13.450;2023-03-01T00:09:10;493.83;;;417.08;;
13368;SDS011;6753;52.520;13.450;2023-03-01T00:09:20;492.50;;;417.07;;
13368;SDS011;6753;52.520;13.450;2023-03-01T00:09:31;490.58;;;414.58;;
13368;SDS011;6753;52.520;13.450;2023-03-01T00:09:42;489.20;;;411.70;;
13368;SDS011;6753;52.520;13.450;2023-03-01T00:09:55;489.75;;;413.27;;
13368;SDS011;6753;52.520;13.450;2023-03-01T00:10:06;492.75;;;414.33;;
13368;SDS011;6753;52.520;13.450;2023-03-01T00:10:18;492.30;;;413.85;;
13368;SDS011;6753;52.520;13.450;2023-03-01T00:10:29;492.33;;;414.13;;
13368;SDS011;6753;52.520;13.450;2023-03-01T00:10:40;488.67;;;408.17;;
13368;SDS011;6753;52.520;13.450;2023-03-01T00:10:59;488.63;;;406.67;;
13368;SDS011;6753;52.520;13.450;2023-03-01T00:11:12;492.80;;;410.90;;
13368;SDS011;6753;52.520;13.450;2023-03-01T00:11:24;494.70;;;414.85;;
13368;SDS011;6753;52.520;13.450;2023-03-01T00:11:36;485.38;;;403.63;;
13368;SDS011;6753;52.520;13.450;2023-03-01T00:11:46;484.63;;;404.83;;
13368;SDS011;6753;52.520;13.450;2023-03-01T00:11:58;485.13;;;404.90;;
13368;SDS011;6753;52.520;13.450;2023-03-01T00:12:09;482.40;;;404.60;;
13368;SDS011;6753;52.520;13.450;2023-03-01T00:12:21;480.67;;;399.73;;
13368;SDS011;6753;52.520;13.450;2023-03-01T00:12:31;478.85;;;397.35;;
13368;SDS011;6753;52.520;13.450;2023-03-01T00:12:42;478.85;;;393.48;;
13368;SDS011;6753;52.520;13.450;2023-03-01T00:12:53;473.40;;;385.88;;
13368;SDS011;6753;52.520;13.450;2023-03-01T00:13:05;470.15;;;379.98;;
13368;SDS011;6753;52.520;13.450;2023-03-01T00:13:15;468.23;;;378.33;;
13368;SDS011;6753;52.520;13.450;2023-03-01T00:13:28;467.67;;;377.20;;
13368;SDS011;6753;52.520;13.450;2023-03-01T00:13:39;469.83;;;380.48;;
13368;SDS011;6753;52.520;13.450;2023-03-01T00:13:51;471.45;;;382.80;;
13368;SDS011;6753;52.520;13.450;2023-03-01T00:14:05;467.08;;;378.10;;
13368;SDS011;6753;52.520;13.450;2023-03-01T00:14:16;464.85;;;376.17;;
13368;SDS011;6753;52.520;13.450;2023-03-01T00:14:27;463.30;;;373.90;;
13368;SDS011;6753;52.520;13.450;2023-03-01T00:14:41;463.52;;;373.90;;
13368;SDS011;6753;52.520;13.450;2023-03-01T00:14:52;463.65;;;375.15;;
13368;SDS011;6753;52.520;13.450;2023-03-01T00:15:02;466.77;;;377.95;;
13368;SDS011;6753;52.520;13.450;2023-03-01T00:15:15;467.27;;;378.80;;
13368;SDS011;6753;52.520;13.450;2023-03-01T00:15:25;472.27;;;384.40;;
13368;SDS011;6753;52.520;13.450;2023-03-01T00:15:38;477.20;;;392.00;;
13368;SDS011;6753;52.520;13.450;2023-03-01T00:15:49;481.73;;;399.50;;
13368;SDS011;6753;52.520;13.450;2023-03-01T00:16:01;487.58;;;407.92;;
13368;SDS011;6753;52.520;13.450;2023-03-01T00:16:13;496.70;;;418.90;;
13368;SDS011;6753;52.520;13.450;2023-03-01T00:16:26;508.33;;;436.23;;
13368;SDS011;6753;52.520;13.450;2023-03-01T00:16:40;516.83;;;444.63;;
13368;SDS011;6753;52.520;13.450;2023-03-01T00:16:52;521.25;;;451.73;;
13368;SDS011;6753;52.520;13.450;2023-03-01T00:17:04;534.55;;;470.85;;
13368;SDS011;6753;52.520;13.450;2023-03-01T00:17:15;562.63;;;500.80;;
13368;SDS011;6753;52.520;13.450;2023-03-01T00:17:27;584.10;;;520.40;;
13368;SDS011;6753;52.520;13.450;2023-03-01T00:17:37;611.17;;;545.35;;
13368;SDS011;6753;52.520;13.450;2023-03-01T00:17:48;615.10;;;548.87;;
13368;SDS011;6753;52.520;13.450;2023-03-01T00:17:59;607.33;;;541.63;;
13368;SDS011;6753;52.520;13.450;2023-03-01T00:18:10;574.65;;;511.30;;
13368;SDS011;6753;52.520;13.450;2023-03-01T00:18:21;548.30;;;484.65;;
13368;SDS011;6753;52.520;13.450;2023-03-01T00:18:32;517.10;;;448.45;;
13368;SDS011;6753;52.520;13.450;2023-03-01T00:18:44;506.00;;;434.67;;
13368;SDS011;6753;52.520;13.450;2023-03-01T00:18:55;502.63;;;429.53;;
13368;SDS011;6753;52.520;13.450;2023-03-01T00:19:07;500.10;;;427.90;;
13368;SDS011;6753;52.520;13.450;2023-03-01T00:19:19;495.95;;;423.27;;
13368;SDS011;6753;52.520;13.450;2023-03-01T00:19:32;493.02;;;420.02;;
13368;SDS011;6753;52.520;13.450;2023-03-01T00:19:43;490.55;;;417.77;;
13368;SDS011;6753;52.520;13.450;2023-03-01T00:19:54;486.95;;;413.58;;
13368;SDS011;6753;52.520;13.450;2023-03-01T00:20:05;483.50;;;408.00;;
13368;SDS011;6753;52.520;13.450;2023-03-01T00:20:19;482.98;;;407.00;;
13368;SDS011;6753;52.520;13.450;2023-03-01T00:20:30;479.83;;;401.98;;
13368;SDS011;6753;52.520;13.450;2023-03-01T00:20:41;475.90;;;395.90;;
13368;SDS011;6753;52.520;13.450;2023-03-01T00:20:51;474.27;;;392.20;;
13368;SDS011;6753;52.520;13.450;2023-03-01T00:21:03;473.48;;;390.63;;
13368;SDS011;6753;52.520;13.450;2023-03-01T00:21:16;472.98;;;390.50;;
13368;SDS011;6753;52.520;13.450;2023-03-01T00:21:27;474.95;;;392.20;;
13368;SDS011;6753;52.520;13.450;2023-03-01T00:21:39;475.77;;;392.50;;
13368;SDS011;6753;52.520;13.450;2023-03-01T00:21:50;475.40;;;394.52;;
13368;SDS011;6753;52.520;13.450;2023-03-01T00:22:01;476.52;;;395.98;;
13368;SDS011;6753;52.520;13.450;2023-03-01T00:22:11;480.48;;;400.20;;
13368;SDS011;6753;52.520;13.450;2023-03-01T00:22:22;482.50;;;403.55;;
13368;SDS011;6753;52.520;13.450;2023-03-01T00:22:34;485.58;;;408.63;;
13368;SDS011;6753;52.520;13.450;2023-03-01T00:22:45;488.05;;;412.00;;
13368;SDS011;6753;52.520;13.450;2023-03-01T00:22:55;489.17;;;413.30;;
13368;SDS011;6753;52.520;13.450;2023-03-01T00:23:06;489.52;;;414.90;;
13368;SDS011;6753;52.520;13.450;2023-03-01T00:23:17;490.40;;;416.97;;
13368;SDS011;6753;52.520;13.450;2023-03-01T00:23:28;490.58;;;416.73;;
13368;SDS011;6753;52.520;13.450;2023-03-01T00:23:39;491.23;;;416.95;;
13368;SDS011;6753;52.520;13.450;2023-03-01T00:23:49;491.05;;;417.05;;
13368;SDS011;6753;52.520;13.450;2023-03-01T00:24:02;492.02;;;418.77;;
13368;SDS011;6753;52.520;13.450;2023-03-01T00:24:13;491.63;;;419.80;;
13368;SDS011;6753;52.520;13.450;2023-03-01T00:24:25;492.88;;;422.25;;
13368;SDS011;6753;52.520;13.450;2023-03-01T00:24:35;492.20;;;422.83;;
13368;SDS011;6753;52.520;13.450;2023-03-01T00:24:46;493.27;;;423.53;;
13368;SDS011;6753;52.520;13.450;2023-03-01T00:24:57;494.17;;;423.38;;
13368;SDS011;6753;52.520;13.450;2023-03-01T00:25:08;494.25;;;423.83;;
13368;SDS011;6753;52.520;13.450;2023-03-01T00:25:19;494.48;;;424.27;;
13368;SDS011;6753;52.520;13.450;2023-03-01T00:25:31;495.10;;;423.42;;
13368;SDS011;6753;52.520;13.450;2023-03-01T00:25:41;496.33;;;424.63;;
13368;SDS011;6753;52.520;13.450;2023-03-01T00:25:52;496.48;;;426.73;;
13368;SDS011;6753;52.520;13.450;2023-03-01T00:26:05;495.55;;;424.90;;
13368;SDS011;6753;52.520;13.450;2023-03-01T00:26:18;495.60;;;423.65;;
13368;SDS011;6753;52.520;13.450;2023-03-01T00:26:30;495.75;;;423.90;;
13368;SDS011;6753;52.520;13.450;2023-03-01T00:26:41;494.05;;;423.75;;
13368;SDS011;6753;52.520;13.450;2023-03-01T00:26:52;492.33;;;423.20;;
13368;SDS011;6753;52.520;13.450;2023-03-01T00:27:06;492.27;;;423.05;;
13368;SDS011;6753;52.520;13.450;2023-03-01T00:27:17;490.38;;;422.85;;
13368;SDS011;6753;52.520;13.450;2023-03-01T00:27:28;490.05;;;423.50;;
13368;SDS011;6753;52.520;13.450;2023-03-01T00:27:39;491.20;;;424.15;;
13368;SDS011;6753;52.520;13.450;2023-03-01T00:27:49;492.73;;;424.80;;
13368;SDS011;6753;52.520;13.450;2023-03-01T00:28:00;493.17;;;425.90;;
13368;SDS011;6753;52.520;13.450;2023-03-01T00:28:11;494.77;;;428.13;;
13368;SDS011;6753;52.520;13.450;2023-03-01T00:28:22;499.73;;;428.37;;
13368;SDS011;6753;52.520;13.450;2023-03-01T00:28:34;500.65;;;427.65;;
13368;SDS011;6753;52.520;13.450;2023-03-01T00:28:46;498.97;;;428.87;;
13368;SDS011;6753;52.520;13.450;2023-03-01T00:28:57;500.25;;;430.80;;
13368;SDS011;6753;52.520;13.450;2023-03-01T00:29:09;502.55;;;433.20;;
13368;SDS011;6753;52.520;13.450;2023-03-01T00:29:19;501.20;;;438.20;;
13368;SDS011;6753;52.520;13.450;2023-03-01T00:29:30;503.08;;;444.65;;
13368;SDS011;6753;52.520;13.450;2023-03-01T00:29:41;511.83;;;455.10;;
13368;SDS011;6753;52.520;13.450;2023-03-01T00:29:53;520.20;;;462.83;;
13368;SDS011;6753;52.520;13.450;2023-03-01T00:30:04;527.55;;;469.55;;
13368;SDS011;6753;52.520;13.450;2023-03-01T00:30:15;528.70;;;470.70;;
13368;SDS011;6753;52.520;13.450;2023-03-01T00:30:26;526.42;;;468.42;;
13368;SDS011;6753;52.520;13.450;2023-03-01T00:30:37;520.25;;;462.67;;
13368;SDS011;6753;52.520;13.450;2023-03-01T00:30:48;520.50;;;462.90;;
13368;SDS011;6753;52.520;13.450;2023-03-01T00:31:02;517.50;;;459.83;;
13368;SDS011;6753;52.520;13.450;2023-03-01T00:31:14;519.88;;;461.05;;
13368;SDS011;6753;52.520;13.450;2023-03-01T00:31:27;520.65;;;462.38;;
13368;SDS011;6753;52.520;13.450;2023-03-01T00:31:40;524.45;;;465.40;;
13368;SDS011;6753;52.520;13.450;2023-03-01T00:31:50;528.67;;;468.70;;
13368;SDS011;6753;52.520;13.450;2023-03-01T00:32:01;531.40;;;472.45;;
13368;SDS011;6753;52.520;13.450;2023-03-01T00:32:12;534.08;;;474.98;;
13368;SDS011;6753;52.520;13.450;2023-03-01T00:32:23;538.10;;;478.67;;
13368;SDS011;6753;52.520;13.450;2023-03-01T00:32:36;541.65;;;481.88;;
13368;SDS011;6753;52.520;13.450;2023-03-01T00:32:46;543.22;;;483.55;;
13368;SDS011;6753;52.520;13.450;2023-03-01T00:32:58;540.10;;;480.70;;
13368;SDS011;6753;52.520;13.450;2023-03-01T00:33:09;537.50;;;478.42;;
13368;SDS011;6753;52.520;13.450;2023-03-01T00:33:20;535.45;;;476.52;;
13368;SDS011;6753;52.520;13.450;2023-03-01T00:33:31;533.08;;;474.40;;
13368;SDS011;6753;52.520;13.450;2023-03-01T00:33:42;531.17;;;472.73;;
13368;SDS011;6753;52.520;13.450;2023-03-01T00:33:53;527.50;;;469.30;;
13368;SDS011;6753;52.520;13.450;2023-03-01T00:34:07;525.50;;;467.20;;
13368;SDS011;6753;52.520;13.450;2023-03-01T00:34:18;526.27;;;466.83;;
13368;SDS011;6753;52.520;13.450;2023-03-01T00:34:29;526.67;;;467.95;;
13368;SDS011;6753;52.520;13.450;2023-03-01T00:34:40;527.60;;;469.13;;
13368;SDS011;6753;52.520;13.450;2023-03-01T00:34:51;530.65;;;471.95;;
13368;SDS011;6753;52.520;13.450;2023-03-01T00:35:04;534.03;;;475.08;;
13368;SDS011;6753;52.520;13.450;2023-03-01T00:35:15;539.10;;;479.85;;
13368;SDS011;6753;52.520;13.450;2023-03-01T00:35:26;543.53;;;484.13;;
13368;SDS011;6753;52.520;13.450;2023-03-01T00:35:37;545.92;;;486.13;;
13368;SDS011;6753;52.520;13.450;2023-03-01T00:35:48;545.50;;;485.60;;
13368;SDS011;6753;52.520;13.450;2023-03-01T00:35:59;545.78;;;485.98;;
13368;SDS011;6753;52.520;13.450;2023-03-01T00:36:12;545.47;;;485.67;;
13368;SDS011;6753;52.520;13.450;2023-03-01T00:36:25;547.50;;;487.30;;
13368;SDS011;6753;52.520;13.450;2023-03-01T00:36:37;548.45;;;488.15;;
13368;SDS011;6753;52.520;13.450;2023-03-01T00:36:48;552.15;;;491.50;;
13368;SDS011;6753;52.520;13.450;2023-03-01T00:36:58;555.28;;;494.50;;
13368;SDS011;6753;52.520;13.450;2023-03-01T00:37:14;553.47;;;492.85;;
13368;SDS011;6753;52.520;13.450;2023-03-01T00:37:25;552.65;;;492.17;;
13368;SDS011;6753;52.520;13.450;2023-03-01T00:37:37;552.72;;;492.33;;
13368;SDS011;6753;52.520;13.450;2023-03-01T00:37:48;549.33;;;489.23;;
13368;SDS011;6753;52.520;13.450;2023-03-01T00:38:03;543.53;;;483.63;;
13368;SDS011;6753;52.520;13.450;2023-03-01T00:38:14;542.08;;;482.40;;
13368;SDS011;6753;52.520;13.450;2023-03-01T00:38:25;539.85;;;480.17;;
13368;SDS011;6753;52.520;13.450;2023-03-01T00:38:37;538.90;;;479.30;;
13368;SDS011;6753;52.520;13.450;2023-03-01T00:38:48;540.53;;;480.92;;
13368;SDS011;6753;52.520;13.450;2023-03-01T00:38:59;542.47;;;482.67;;
13368;SDS011;6753;52.520;13.450;2023-03-01T00:39:12;546.05;;;485.98;;
13368;SDS011;6753;52.520;13.450;2023-03-01T00:39:24;550.67;;;490.42;;
13368;SDS011;6753;52.520;13.450;2023-03-01T00:39:35;553.53;;;492.98;;
13368;SDS011;6753;52.520;13.450;2023-03-01T00:39:45;555.75;;;495.02;;
13368;SDS011;6753;52.520;13.450;2023-03-01T00:39:56;555.93;;;495.03;;
13368;SDS011;6753;52.520;13.450;2023-03-01T00:40:07;558.72;;;497.35;;
13368;SDS011;6753;52.520;13.450;2023-03-01T00:40:20;552.25;;;491.30;;
13368;SDS011;6753;52.520;13.450;2023-03-01T00:40:32;546.33;;;485.73;;
13368;SDS011;6753;52.520;13.450;2023-03-01T00:40:43;546.65;;;486.00;;
13368;SDS011;6753;52.520;13.450;2023-03-01T00:40:55;555.83;;;494.45;;
13368;SDS011;6753;52.520;13.450;2023-03-01T00:41:13;568.45;;;506.00;;
13368;SDS011;6753;52.520;13.450;2023-03-01T00:41:25;585.55;;;521.35;;
13368;SDS011;6753;52.520;13.450;2023-03-01T00:41:36;597.17;;;531.85;;
13368;SDS011;6753;52.520;13.450;2023-03-01T00:41:47;602.35;;;536.47;;
13368;SDS011;6753;52.520;13.450;2023-03-01T00:41:58;601.38;;;535.47;;
13368;SDS011;6753;52.520;13.450;2023-03-01T00:42:08;599.87;;;534.23;;
13368;SDS011;6753;52.520;13.450;2023-03-01T00:42:20;599.97;;;534.40;;
13368;SDS011;6753;52.520;13.450;2023-03-01T00:42:32;599.28;;;533.88;;
13368;SDS011;6753;52.520;13.450;2023-03-01T00:42:42;597.70;;;532.63;;
13368;SDS011;6753;52.520;13.450;2023-03-01T00:42:53;600.13;;;534.92;;
13368;SDS011;6753;52.520;13.450;2023-03-01T00:43:04;600.33;;;535.10;;
13368;SDS011;6753;52.520;13.450;2023-03-01T00:43:15;600.05;;;534.55;;
13368;SDS011;6753;52.520;13.450;2023-03-01T00:43:25;599.93;;;534.43;;
13368;SDS011;6753;52.520;13.450;2023-03-01T00:43:37;597.72;;;532.25;;
13368;SDS011;6753;52.520;13.450;2023-03-01T00:43:49;592.42;;;527.30;;
13368;SDS011;6753;52.520;13.450;2023-03-01T00:44:00;589.65;;;524.55;;
13368;SDS011;6753;52.520;13.450;2023-03-01T00:44:11;587.25;;;522.67;;
13368;SDS011;6753;52.520;13.450;2023-03-01T00:44:22;588.15;;;523.47;;
13368;SDS011;6753;52.520;13.450;2023-03-01T00:44:33;585.05;;;520.85;;
13368;SDS011;6753;52.520;13.450;2023-03-01T00:44:44;584.57;;;520.27;;
13368;SDS011;6753;52.520;13.450;2023-03-01T00:44:55;584.63;;;520.42;;
13368;SDS011;6753;52.520;13.450;2023-03-01T00:45:06;583.78;;;519.75;;
13368;SDS011;6753;52.520;13.450;2023-03-01T00:45:17;584.17;;;520.22;;
13368;SDS011;6753;52.520;13.450;2023-03-01T00:45:28;586.95;;;523.00;;
13368;SDS011;6753;52.520;13.450;2023-03-01T00:45:40;590.03;;;526.03;;
13368;SDS011;6753;52.520;13.450;2023-03-01T00:45:51;589.35;;;525.75;;
13368;SDS011;6753;52.520;13.450;2023-03-01T00:46:03;588.50;;;525.00;;
13368;SDS011;6753;52.520;13.450;2023-03-01T00:46:16;588.42;;;524.90;;
13368;SDS011;6753;52.520;13.450;2023-03-01T00:46:28;586.30;;;522.85;;
13368;SDS011;6753;52.520;13.450;2023-03-01T00:46:40;583.88;;;520.58;;
13368;SDS011;6753;52.520;13.450;2023-03-01T00:46:51;586.58;;;522.88;;
13368;SDS011;6753;52.520;13.450;2023-03-01T00:47:02;588.53;;;524.53;;
13368;SDS011;6753;52.520;13.450;2023-03-01T00:47:13;582.47;;;519.08;;
13368;SDS011;6753;52.520;13.450;2023-03-01T00:47:23;575.28;;;512.63;;
13368;SDS011;6753;52.520;13.450;2023-03-01T00:47:34;571.57;;;509.20;;
13368;SDS011;6753;52.520;13.450;2023-03-01T00:47:45;568.22;;;506.20;;
13368;SDS011;6753;52.520;13.450;2023-03-01T00:47:56;559.80;;;498.50;;
13368;SDS011;6753;52.520;13.450;2023-03-01T00:48:07;557.63;;;496.33;;
13368;SDS011;6753;52.520;13.450;2023-03-01T00:48:17;554.80;;;493.70;;
13368;SDS011;6753;52.520;13.450;2023-03-01T00:48:28;557.10;;;495.60;;
13368;SDS011;6753;52.520;13.450;2023-03-01T00:48:40;558.72;;;496.73;;
13368;SDS011;6753;52.520;13.450;2023-03-01T00:48:51;565.47;;;500.90;;
13368;SDS011;6753;52.520;13.450;2023-03-01T00:49:03;567.28;;;501.50;;
13368;SDS011;6753;52.520;13.450;2023-03-01T00:49:14;569.30;;;501.75;;
13368;SDS011;6753;52.520;13.450;2023-03-01T00:49:25;583.58;;;510.25;;
13368;SDS011;6753;52.520;13.450;2023-03-01T00:49:37;576.45;;;499.13;;
13368;SDS011;6753;52.520;13.450;2023-03-01T00:49:48;573.97;;;491.55;;
13368;SDS011;6753;52.520;13.450;2023-03-01T00:49:59;564.28;;;481.35;;
13368;SDS011;6753;52.520;13.450;2023-03-01T00:50:10;566.17;;;478.93;;
13368;SDS011;6753;52.520;13.450;2023-03-01T00:50:21;564.38;;;477.33;;
13368;SDS011;6753;52.520;13.450;2023-03-01T00:50:32;566.63;;;481.20;;
13368;SDS011;6753;52.520;13.450;2023-03-01T00:50:43;573.92;;;495.25;;
13368;SDS011;6753;52.520;13.450;2023-03-01T00:50:53;587.27;;;508.17;;
13368;SDS011;6753;52.520;13.450;2023-03-01T00:51:05;601.90;;;522.55;;
13368;SDS011;6753;52.520;13.450;2023-03-01T00:51:17;612.95;;;532.55;;
13368;SDS011;6753;52.520;13.450;2023-03-01T00:51:30;632.80;;;546.50;;
13368;SDS011;6753;52.520;13.450;2023-03-01T00:51:41;634.28;;;548.20;;
13368;SDS011;6753;52.520;13.450;2023-03-01T00:51:53;636.08;;;551.20;;
13368;SDS011;6753;52.520;13.450;2023-03-01T00:52:04;636.97;;;556.55;;
13368;SDS011;6753;52.520;13.450;2023-03-01T00:52:15;629.03;;;555.70;;
13368;SDS011;6753;52.520;13.450;2023-03-01T00:52:25;622.88;;;554.08;;
13368;SDS011;6753;52.520;13.450;2023-03-01T00:52:38;621.88;;;553.30;;
13368;SDS011;6753;52.520;13.450;2023-03-01T00:52:51;626.03;;;557.33;;
13368;SDS011;6753;52.520;13.450;2023-03-01T00:53:03;623.42;;;554.90;;
13368;SDS011;6753;52.520;13.450;2023-03-01T00:53:15;626.80;;;557.80;;
13368;SDS011;6753;52.520;13.450;2023-03-01T00:53:25;631.40;;;561.90;;
13368;SDS011;6753;52.520;13.450;2023-03-01T00:53:36;636.90;;;567.03;;
13368;SDS011;6753;52.520;13.450;2023-03-01T00:53:49;638.88;;;568.85;;
13368;SDS011;6753;52.520;13.450;2023-03-01T00:54:02;641.75;;;571.40;;
13368;SDS011;6753;52.520;13.450;2023-03-01T00:54:13;646.88;;;576.08;;
13368;SDS011;6753;52.520;13.450;2023-03-01T00:54:24;654.40;;;583.00;;
13368;SDS011;6753;52.520;13.450;2023-03-01T00:54:34;656.47;;;584.85;;
13368;SDS011;6753;52.520;13.450;2023-03-01T00:54:45;660.08;;;588.15;;
13368;SDS011;6753;52.520;13.450;2023-03-01T00:54:56;663.80;;;591.53;;
13368;SDS011;6753;52.520;13.450;2023-03-01T00:55:08;664.83;;;592.67;;
13368;SDS011;6753;52.520;13.450;2023-03-01T00:55:19;659.03;;;587.33;;
13368;SDS011;6753;52.520;13.450;2023-03-01T00:55:31;653.25;;;582.08;;
13368;SDS011;6753;52.520;13.450;2023-03-01T00:55:41;646.30;;;575.60;;
13368;SDS011;6753;52.520;13.450;2023-03-01T00:55:52;642.00;;;571.50;;
13368;SDS011;6753;52.520;13.450;2023-03-01T00:56:03;640.28;;;569.60;;
13368;SDS011;6753;52.520;13.450;2023-03-01T00:56:15;640.28;;;569.50;;
13368;SDS011;6753;52.520;13.450;2023-03-01T00:56:26;642.30;;;571.43;;
13368;SDS011;6753;52.520;13.450;2023-03-01T00:56:37;642.17;;;571.33;;
13368;SDS011;6753;52.520;13.450;2023-03-01T00:56:49;643.00;;;572.33;;
13368;SDS011;6753;52.520;13.450;2023-03-01T00:56:59;640.00;;;569.97;;
13368;SDS011;6753;52.520;13.450;2023-03-01T00:57:10;635.63;;;566.22;;
13368;SDS011;6753;52.520;13.450;2023-03-01T00:57:21;630.58;;;561.80;;
13368;SDS011;6753;52.520;13.450;2023-03-01T00:57:32;626.60;;;558.17;;
13368;SDS011;6753;52.520;13.450;2023-03-01T00:57:43;621.25;;;553.25;;
13368;SDS011;6753;52.520;13.450;2023-03-01T00:57:54;619.75;;;552.10;;
13368;SDS011;6753;52.520;13.450;2023-03-01T00:58:04;620.43;;;552.83;;
13368;SDS011;6753;52.520;13.450;2023-03-01T00:58:15;620.85;;;553.15;;
13368;SDS011;6753;52.520;13.450;2023-03-01T00:58:26;621.13;;;553.42;;
13368;SDS011;6753;52.520;13.450;2023-03-01T00:58:39;624.17;;;556.38;;
13368;SDS011;6753;52.520;13.450;2023-03-01T00:58:50;625.42;;;557.35;;
13368;SDS011;6753;52.520;13.450;2023-03-01T00:59:01;622.93;;;555.20;;
13368;SDS011;6753;52.520;13.450;2023-03-01T00:59:12;626.25;;;558.03;;
13368;SDS011;6753;52.520;13.450;2023-03-01T00:59:22;629.03;;;560.50;;
13368;SDS011;6753;52.520;13.450;2023-03-01T00:59:33;631.70;;;563.00;;
13368;SDS011;6753;52.520;13.450;2023-03-01T00:59:45;629.20;;;560.55;;
13368;SDS011;6753;52.520;13.450;2023-03-01T00:59:55;624.60;;;556.27;;
13368;SDS011;6753;52.520;13.450;2023-03-01T01:00:08;615.90;;;547.95;;
13368;SDS011;6753;52.520;13.450;2023-03-01T01:00:21;603.00;;;536.25;;
13368;SDS011;6753;52.520;13.450;2023-03-01T01:00:32;602.53;;;534.72;;
13368;SDS011;6753;52.520;13.450;2023-03-01T01:00:43;609.63;;;541.75;;
13368;SDS011;6753;52.520;13.450;2023-03-01T01:00:54;625.13;;;556.53;;
13368;SDS011;6753;52.520;13.450;2023-03-01T01:01:08;642.37;;;572.27;;
13368;SDS011;6753;52.520;13.450;2023-03-01T01:01:28;679.50;;;605.85;;
13368;SDS011;6753;52.520;13.450;2023-03-01T01:01:41;685.85;;;611.58;;
13368;SDS011;6753;52.520;13.450;2023-03-01T01:01:51;685.15;;;610.75;;
13368;SDS011;6753;52.520;13.450;2023-03-01T01:02:02;685.42;;;610.90;;
13368;SDS011;6753;52.520;13.450;2023-03-01T01:02:13;679.13;;;605.43;;
13368;SDS011;6753;52.520;13.450;2023-03-01T01:02:24;676.47;;;603.15;;
13368;SDS011;6753;52.520;13.450;2023-03-01T01:02:37;670.88;;;598.08;;
13368;SDS011;6753;52.520;13.450;2023-03-01T01:02:48;664.22;;;591.85;;
13368;SDS011;6753;52.520;13.450;2023-03-01T01:03:00;658.33;;;586.58;;
13368;SDS011;6753;52.520;13.450;2023-03-01T01:03:10;656.08;;;584.38;;
13368;SDS011;6753;52.520;13.450;2023-03-01T01:03:21;652.17;;;580.67;;
13368;SDS011;6753;52.520;13.450;2023-03-01T01:03:34;649.83;;;578.67;;
13368;SDS011;6753;52.520;13.450;2023-03-01T01:03:46;651.20;;;580.07;;
13368;SDS011;6753;52.520;13.450;2023-03-01T01:03:58;651.63;;;580.53;;
13368;SDS011;6753;52.520;13.450;2023-03-01T01:04:11;649.90;;;579.08;;
13368;SDS011;6753;52.520;13.450;2023-03-01T01:04:22;648.00;;;577.47;;
13368;SDS011;6753;52.520;13.450;2023-03-01T01:04:33;644.90;;;574.42;;
13368;SDS011;6753;52.520;13.450;2023-03-01T01:04:45;642.40;;;572.30;;
13368;SDS011;6753;52.520;13.450;2023-03-01T01:04:56;641.00;;;571.00;;
13368;SDS011;6753;52.520;13.450;2023-03-01T01:05:07;641.63;;;571.42;;